Time;durP1;ratioP1;P1;durP2;ratioP2;P2;SDS_P1;SDS_P2;PMS_P1;PMS_P2;Temp;Humidity;BMP_temperature;BMP_pressure;BME280_temperature;BME280_humidity;BME280_pressure;Samples;Min_cycle;Max_cycle;Signal;HPM_P1;HPM_P2
2022/08/18 00:02:16;;;;;;;19.10;17.00;;;;;;;23.43;61.73;99828.82;117173;1185;21953;-59
2022/08/18 00:04:43;;;;;;;19.30;16.80;;;;;;;23.44;61.49;99832.38;117223;1186;23449;-65
2022/08/18 00:07:26;;;;;;;20.90;17.50;;;;;;;23.46;61.45;99834.22;117286;1185;22921;-66
2022/08/18 00:09:53;;;;;;;24.00;17.50;;;;;;;23.46;61.53;99832.25;117316;1186;23722;-60
2022/08/18 00:12:32;;;;;;;21.60;18.20;;;;;;;23.44;61.58;99830.71;117290;1186;22999;-59
2022/08/18 00:15:02;;;;;;;21.70;18.60;;;;;;;23.43;61.52;99832.61;117292;1186;23659;-59
2022/08/18 00:17:33;;;;;;;24.00;19.50;;;;;;;23.42;61.58;99831.23;117166;1187;22928;-66
2022/08/18 00:20:00;;;;;;;20.40;18.20;;;;;;;23.44;61.41;99831.98;117295;1183;23024;-59
2022/08/18 00:22:27;;;;;;;20.90;18.30;;;;;;;23.45;61.50;99832.27;117314;1186;23557;-66
2022/08/18 00:24:56;;;;;;;24.30;19.00;;;;;;;23.40;61.72;99832.45;117314;1185;23577;-66
2022/08/18 00:27:28;;;;;;;20.90;18.30;;;;;;;23.39;61.79;99834.19;117348;1185;22152;-60
2022/08/18 00:29:57;;;;;;;23.00;18.90;;;;;;;23.37;61.70;99829.48;117343;1184;22631;-66
2022/08/18 00:32:33;;;;;;;22.00;19.70;;;;;;;23.36;61.80;99832.83;117366;1183;21858;-59
2022/08/18 00:35:05;;;;;;;21.20;18.70;;;;;;;23.33;61.67;99831.57;117131;1182;22684;-66
2022/08/18 00:37:32;;;;;;;23.60;20.70;;;;;;;23.31;61.57;99835.09;117176;1188;21861;-59
2022/08/18 00:39:59;;;;;;;22.80;18.90;;;;;;;23.33;61.86;99839.29;117264;1186;24236;-65
2022/08/18 00:42:28;;;;;;;22.00;19.30;;;;;;;23.30;61.79;99843.98;117254;1186;22068;-67
2022/08/18 00:45:02;;;;;;;21.60;19.30;;;;;;;23.30;61.74;99852.05;117268;1186;21931;-66
2022/08/18 00:47:29;;;;;;;23.20;18.60;;;;;;;23.30;61.73;99854.00;117023;1187;22973;-66
2022/08/18 00:50:36;;;;;;;19.60;17.50;;;;;;;23.29;61.76;99848.84;117116;1188;23568;-60
2022/08/18 00:53:34;;;;;;;21.30;18.90;;;;;;;23.26;61.81;99848.55;117014;1186;22816;-67
2022/08/18 00:56:09;;;;;;;20.00;17.90;;;;;;;23.23;61.72;99847.36;117226;1185;21857;-67
2022/08/18 00:59:01;;;;;;;20.90;17.20;;;;;;;23.18;61.75;99843.59;117060;1187;21859;-59
2022/08/18 01:01:30;;;;;;;22.30;17.10;;;;;;;23.14;61.78;99839.91;117158;1186;23702;-65
2022/08/18 01:04:20;;;;;;;22.60;18.90;;;;;;;23.13;61.77;99841.62;117244;1183;21855;-67
2022/08/18 01:06:51;;;;;;;22.60;18.40;;;;;;;23.12;61.88;99844.51;117185;1188;21857;-59
2022/08/18 01:09:18;;;;;;;20.80;18.70;;;;;;;23.12;61.98;99845.59;117185;1188;22608;-67
2022/08/18 01:11:45;;;;;;;20.40;18.20;;;;;;;23.11;62.00;99846.59;117046;1187;23565;-66
2022/08/18 01:14:14;;;;;;;20.90;18.10;;;;;;;23.10;61.88;99843.97;117151;1183;22946;-59
2022/08/18 01:22:19;;;;;;;19.80;17.80;;;;;;;23.08;61.90;99837.35;117091;1187;21828;-59
2022/08/18 01:27:32;;;;;;;21.20;19.10;;;;;;;23.05;62.27;99831.26;116865;1186;23583;-59
2022/08/18 01:30:08;;;;;;;21.70;19.50;;;;;;;23.01;62.43;99832.80;117253;1186;22927;-59
2022/08/18 01:32:36;;;;;;;21.40;19.10;;;;;;;22.97;62.38;99828.63;117181;1186;23456;-59
2022/08/18 01:35:03;;;;;;;21.80;19.50;;;;;;;22.97;62.54;99828.80;117194;1188;21914;-66
2022/08/18 01:37:30;;;;;;;25.80;19.20;;;;;;;23.00;62.55;99824.98;117286;1186;23627;-66
2022/08/18 01:39:57;;;;;;;21.60;19.50;;;;;;;23.02;62.61;99823.40;117289;1186;22615;-66
2022/08/18 01:42:45;;;;;;;20.80;18.00;;;;;;;23.08;62.45;99823.39;117302;1183;22895;-67
2022/08/18 01:45:13;;;;;;;20.30;18.20;;;;;;;23.10;62.28;99821.81;117319;1186;22825;-59
2022/08/18 01:47:40;;;;;;;20.00;17.80;;;;;;;23.05;62.39;99821.96;117356;1188;21929;-66
2022/08/18 01:50:24;;;;;;;19.30;17.30;;;;;;;23.04;62.39;99820.80;117398;1186;23388;-66
2022/08/18 01:52:52;;;;;;;19.80;17.80;;;;;;;23.04;62.48;99820.61;117257;1188;23557;-60
2022/08/18 01:55:19;;;;;;;20.40;18.30;;;;;;;23.02;62.37;99824.11;117352;1186;23027;-66
2022/08/18 01:57:46;;;;;;;21.20;19.10;;;;;;;23.02;62.43;99825.58;117241;1183;23648;-66
2022/08/18 02:00:15;;;;;;;20.50;18.40;;;;;;;23.05;62.45;99828.96;117270;1186;21977;-59
2022/08/18 02:02:42;;;;;;;20.50;18.40;;;;;;;23.05;62.30;99826.95;117348;1185;22728;-66
2022/08/18 02:05:22;;;;;;;21.50;19.30;;;;;;;23.05;62.30;99825.02;117235;1189;22926;-66
2022/08/18 02:07:50;;;;;;;21.30;19.10;;;;;;;23.04;62.29;99823.45;117116;1189;22108;-66
2022/08/18 02:10:20;;;;;;;21.70;19.60;;;;;;;23.03;62.32;99822.10;117355;1185;21898;-59
2022/08/18 02:12:47;;;;;;;21.90;19.70;;;;;;;23.03;62.32;99820.86;117184;1182;23599;-59
2022/08/18 02:15:14;;;;;;;23.10;20.90;;;;;;;22.99;62.45;99821.85;117357;1186;23605;-59
2022/08/18 02:17:42;;;;;;;22.90;20.50;;;;;;;22.95;62.50;99823.80;117379;1183;22902;-65
2022/08/18 02:20:13;;;;;;;26.80;20.50;;;;;;;22.91;62.48;99817.79;117265;1182;21917;-67
2022/08/18 02:22:40;;;;;;;22.00;19.80;;;;;;;22.89;62.62;99818.11;117205;1188;21860;-66
2022/08/18 02:25:08;;;;;;;23.00;20.60;;;;;;;22.87;62.55;99818.05;117347;1186;21964;-67
2022/08/18 02:31:13;;;;;;;23.40;21.00;;;;;;;22.86;62.60;99813.64;117230;1186;23519;-67
2022/08/18 02:33:41;;;;;;;23.90;21.40;;;;;;;22.85;62.44;99814.10;117281;1186;21852;-67
2022/08/18 02:36:19;;;;;;;24.60;22.10;;;;;;;22.87;62.49;99816.13;117281;1186;21859;-66
2022/08/18 02:38:46;;;;;;;25.20;22.50;;;;;;;22.90;62.45;99818.23;117286;1182;22230;-59
2022/08/18 02:41:27;;;;;;;24.50;22.10;;;;;;;22.89;62.35;99818.66;117228;1186;21858;-67
2022/08/18 02:43:56;;;;;;;24.80;22.40;;;;;;;22.86;62.46;99823.51;117355;1185;21992;-67
2022/08/18 02:46:24;;;;;;;24.30;21.90;;;;;;;22.85;62.33;99822.33;117297;1181;23001;-59
2022/08/18 02:48:58;;;;;;;25.50;22.90;;;;;;;22.84;62.38;99818.50;117243;1182;21854;-67
2022/08/18 02:51:25;;;;;;;25.00;22.60;;;;;;;22.83;62.52;99821.58;117224;1182;23027;-67
2022/08/18 02:53:53;;;;;;;26.10;23.30;;;;;;;22.84;62.40;99822.20;117245;1183;22665;-67
2022/08/18 02:56:24;;;;;;;26.20;23.40;;;;;;;22.83;62.38;99821.20;117319;1186;22920;-59
2022/08/18 02:59:18;;;;;;;25.40;22.80;;;;;;;22.78;62.57;99821.59;117131;1183;21870;-67
2022/08/18 03:01:47;;;;;;;30.20;22.50;;;;;;;22.74;62.67;99824.73;117117;1188;22952;-59
2022/08/18 03:04:18;;;;;;;25.20;22.30;;;;;;;22.73;62.88;99824.81;117284;1185;21970;-67
2022/08/18 03:06:51;;;;;;;30.40;24.20;;;;;;;22.73;62.83;99827.12;117163;1182;21845;-66
2022/08/18 03:09:18;;;;;;;25.40;21.70;;;;;;;22.77;62.72;99831.51;117249;1186;21917;-67
2022/08/18 03:11:45;;;;;;;27.30;24.50;;;;;;;22.79;62.68;99832.27;117171;1186;21931;-59
2022/08/18 03:14:13;;;;;;;26.50;23.90;;;;;;;22.78;62.53;99831.10;117104;1187;21862;-66
2022/08/18 03:16:43;;;;;;;27.20;24.60;;;;;;;22.76;62.47;99833.94;117194;1185;21859;-67
2022/08/18 03:19:19;;;;;;;28.80;25.80;;;;;;;22.75;62.61;99832.20;117156;1182;21859;-58
2022/08/18 03:21:47;;;;;;;31.60;25.50;;;;;;;22.73;62.58;99835.33;117320;1183;22686;-59
2022/08/18 03:27:55;;;;;;;27.40;24.60;;;;;;;22.73;62.60;99840.02;117265;1185;21864;-66
2022/08/18 03:30:22;;;;;;;27.70;24.90;;;;;;;22.73;62.72;99840.88;117213;1182;22067;-59
2022/08/18 03:32:49;;;;;;;26.90;24.20;;;;;;;22.73;62.64;99840.14;117322;1186;23046;-67
2022/08/18 03:35:16;;;;;;;26.90;24.00;;;;;;;22.73;62.71;99846.80;117046;1186;22917;-59
2022/08/18 03:37:43;;;;;;;26.40;23.70;;;;;;;22.73;62.61;99849.84;117046;1186;22718;-59
2022/08/18 03:40:11;;;;;;;28.30;25.40;;;;;;;22.73;62.55;99854.50;117356;1183;22917;-62
2022/08/18 03:42:38;;;;;;;27.60;24.80;;;;;;;22.72;62.80;99856.75;117312;1182;21888;-59
2022/08/18 03:45:06;;;;;;;25.90;23.30;;;;;;;22.72;62.81;99856.71;117183;1182;22621;-59
2022/08/18 03:47:44;;;;;;;27.60;24.70;;;;;;;22.73;62.79;99860.16;117272;1190;21855;-66
2022/08/18 03:50:12;;;;;;;25.60;23.10;;;;;;;22.76;62.75;99863.42;117286;1182;23583;-59
2022/08/18 03:52:40;;;;;;;28.30;25.10;;;;;;;22.76;63.07;99862.84;117222;1182;21973;-66
2022/08/18 03:55:08;;;;;;;26.90;24.20;;;;;;;22.79;63.21;99861.78;117209;1185;21880;-66
2022/08/18 03:57:36;;;;;;;27.50;24.50;;;;;;;22.82;63.26;99862.96;117097;1186;21859;-58
2022/08/18 04:00:05;;;;;;;28.10;25.20;;;;;;;22.87;63.29;99863.66;117234;1186;21871;-59
2022/08/18 04:02:32;;;;;;;35.80;26.40;;;;;;;22.92;63.20;99861.91;117202;1182;21856;-59
2022/08/18 04:04:59;;;;;;;29.00;26.10;;;;;;;22.96;63.36;99866.60;116995;1183;22047;-66
2022/08/18 04:07:31;;;;;;;27.90;25.00;;;;;;;23.00;63.32;99867.19;119123;1186;21810;-67
2022/08/18 04:09:57;;;;;;;30.00;26.90;;;;;;;23.02;63.47;99875.84;119351;1182;21798;-59
2022/08/18 04:12:25;;;;;;;28.80;25.90;;;;;;;23.06;63.64;99874.30;118868;1183;23635;-66
2022/08/18 04:14:52;;;;;;;29.20;26.20;;;;;;;23.13;63.77;99871.70;119238;1182;21797;-64
2022/08/18 04:17:23;;;;;;;32.00;28.90;;;;;;;23.19;63.64;99869.81;119315;1182;21782;-64
2022/08/18 04:19:54;;;;;;;29.10;26.10;;;;;;;23.26;63.75;99867.13;119250;1182;22267;-59
2022/08/18 04:22:21;;;;;;;;;;;;;;;23.36;64.00;99865.41;118266;1183;23713;-62
2022/08/18 04:24:49;;;;;;;29.00;26.10;;;;;;;23.44;64.07;99868.38;117194;1183;21908;-66
2022/08/18 04:27:17;;;;;;;29.30;26.10;;;;;;;23.51;64.04;99867.66;117190;1183;21895;-59
2022/08/18 04:29:44;;;;;;;29.80;27.00;;;;;;;23.61;64.03;99868.74;117247;1185;21858;-59
2022/08/18 04:32:11;;;;;;;29.60;26.50;;;;;;;23.70;64.19;99868.22;117319;1183;21863;-60
2022/08/18 04:34:39;;;;;;;27.70;25.00;;;;;;;23.80;64.25;99868.38;117237;1183;21855;-66
2022/08/18 04:37:08;;;;;;;31.30;28.10;;;;;;;23.90;64.47;99872.44;117330;1185;21839;-59
2022/08/18 04:39:36;;;;;;;30.20;26.10;;;;;;;23.99;64.63;99878.24;117275;1185;23513;-59
2022/08/18 04:42:04;;;;;;;29.30;26.30;;;;;;;24.08;64.48;99877.02;117349;1186;21875;-66
2022/08/18 04:44:33;;;;;;;29.60;26.70;;;;;;;24.18;64.53;99880.58;117352;1186;21895;-59
2022/08/18 04:47:00;;;;;;;29.50;26.30;;;;;;;24.28;64.62;99880.14;117404;1182;22626;-65
2022/08/18 04:49:29;;;;;;;27.50;24.80;;;;;;;24.38;64.45;99880.13;117380;1182;22973;-60
2022/08/18 04:55:02;;;;;;;27.00;24.40;;;;;;;24.59;64.52;99879.39;117417;1183;22925;-65
2022/08/18 04:57:32;;;;;;;28.30;25.40;;;;;;;24.68;64.48;99881.67;117500;1185;21860;-59
2022/08/18 05:00:01;;;;;;;28.50;25.00;;;;;;;24.78;64.53;99882.86;117458;1184;22922;-65
2022/08/18 05:02:31;;;;;;;28.00;25.00;;;;;;;24.89;64.39;99879.92;117399;1186;23445;-63
2022/08/18 05:05:01;;;;;;;26.80;24.20;;;;;;;25.00;64.42;99881.19;117503;1186;23611;-66
2022/08/18 05:07:29;;;;;;;26.70;24.00;;;;;;;25.12;64.31;99879.69;117392;1186;22994;-66
2022/08/18 05:09:56;;;;;;;27.50;24.60;;;;;;;25.23;64.27;99876.22;117516;1186;21854;-59
2022/08/18 05:12:23;;;;;;;24.90;22.50;;;;;;;25.35;64.18;99876.39;117361;1183;21902;-59
2022/08/18 05:14:52;;;;;;;25.50;22.60;;;;;;;25.44;64.10;99872.43;117361;1183;21970;-59
2022/08/18 05:17:19;;;;;;;25.30;22.80;;;;;;;25.54;64.23;99876.40;117270;1186;21858;-66
2022/08/18 05:19:47;;;;;;;25.50;22.80;;;;;;;25.67;64.12;99877.50;117351;1186;22219;-66
2022/08/18 05:22:18;;;;;;;26.30;23.50;;;;;;;25.77;63.87;99878.52;117114;1183;22193;-67
2022/08/18 05:24:54;;;;;;;26.50;24.00;;;;;;;25.87;63.94;99876.44;119450;1180;21779;-66
2022/08/18 05:27:21;;;;;;;25.40;22.80;;;;;;;25.99;64.13;99873.08;119445;1184;22134;-65
2022/08/18 05:29:48;;;;;;;24.60;22.10;;;;;;;26.18;64.32;99877.05;119399;1185;22268;-65
2022/08/18 05:32:17;;;;;;;29.90;22.00;;;;;;;26.37;64.06;99881.34;119429;1184;21792;-67
2022/08/18 05:35:11;;;;;;;22.50;20.20;;;;;;;26.55;63.89;99886.40;119424;1185;21786;-60
2022/08/18 05:38:06;;;;;;;23.50;19.30;;;;;;;26.68;63.72;99885.84;118797;1183;22924;-66
2022/08/18 05:40:34;;;;;;;22.70;20.30;;;;;;;26.84;63.41;99887.38;117162;1186;21866;-59
2022/08/18 05:43:01;;;;;;;20.70;18.70;;;;;;;26.93;63.27;99888.35;117291;1183;22988;-59
2022/08/18 05:45:28;;;;;;;21.20;19.10;;;;;;;27.07;63.49;99886.41;117171;1183;24185;-59
2022/08/18 05:48:00;;;;;;;17.90;16.10;;;;;;;27.21;63.11;99883.70;117077;1187;23623;-66
2022/08/18 05:50:28;;;;;;;20.10;18.00;;;;;;;27.36;62.19;99886.17;117154;1186;22647;-67
2022/08/18 05:53:07;;;;;;;18.60;16.70;;;;;;;27.56;62.82;99884.56;117378;1186;21870;-67
2022/08/18 05:58:30;;;;;;;19.00;17.10;;;;;;;28.00;62.67;99892.93;117183;1182;22645;-64
2022/08/18 06:01:23;;;;;;;17.40;15.80;;;;;;;28.15;62.37;99891.23;117335;1186;21858;-65
2022/08/18 06:04:15;;;;;;;18.50;16.50;;;;;;;28.21;62.07;99887.23;117184;1182;22645;-59
2022/08/18 06:06:42;;;;;;;17.90;16.10;;;;;;;28.37;62.45;99886.96;117183;1186;21858;-65
2022/08/18 06:09:43;;;;;;;16.40;14.90;;;;;;;28.52;62.04;99888.80;117219;1186;23498;-65
2022/08/18 06:12:42;;;;;;;17.70;16.00;;;;;;;28.71;62.39;99891.17;117308;1186;21855;-60
2022/08/18 06:15:13;;;;;;;16.80;15.20;;;;;;;29.04;62.35;99891.63;117269;1186;21974;-59
2022/08/18 06:18:14;;;;;;;17.50;15.80;;;;;;;29.29;62.04;99890.98;117117;1187;21918;-59
2022/08/18 06:20:52;;;;;;;17.30;15.60;;;;;;;29.43;61.29;99888.05;117241;1182;22845;-65
2022/08/18 06:23:26;;;;;;;15.20;13.50;;;;;;;29.53;61.22;99887.52;117277;1186;21854;-65
2022/08/18 06:26:07;;;;;;;15.50;13.90;;;;;;;29.71;61.50;99888.84;117498;1186;23589;-59
2022/08/18 06:29:05;;;;;;;14.90;12.10;;;;;;;29.94;61.07;99885.22;117530;1182;22977;-59
2022/08/18 06:31:35;;;;;;;14.00;12.00;;;;;;;30.19;60.44;99882.37;117218;1186;21956;-66
2022/08/18 06:34:12;;;;;;;13.10;11.70;;;;;;;30.32;59.81;99876.65;117197;1182;22948;-65
2022/08/18 06:37:19;;;;;;;14.00;11.80;;;;;;;30.46;60.01;99878.53;117283;1182;22982;-67
2022/08/18 06:39:51;;;;;;;12.60;11.40;;;;;;;30.66;60.00;99879.51;117353;1186;22951;-66
2022/08/18 06:42:29;;;;;;;12.30;11.10;;;;;;;30.76;59.31;99880.31;117353;1185;22079;-60
2022/08/18 06:44:59;;;;;;;12.70;11.30;;;;;;;30.88;59.29;99879.92;117373;1186;21856;-60
2022/08/18 06:47:51;;;;;;;12.20;11.00;;;;;;;31.12;59.18;99876.32;117295;1186;22623;-66
2022/08/18 06:50:43;;;;;;;11.60;10.50;;;;;;;31.34;58.97;99874.02;117371;1183;21973;-61
2022/08/18 06:53:10;;;;;;;15.20;10.70;;;;;;;31.53;58.68;99869.55;117273;1181;22967;-60
2022/08/18 06:55:52;;;;;;;11.90;10.70;;;;;;;31.79;58.61;99867.10;117469;1185;22654;-58
2022/08/18 06:58:29;;;;;;;11.70;10.50;;;;;;;32.07;58.25;99864.55;117119;1182;21900;-59
2022/08/18 07:01:01;;;;;;;13.60;11.30;;;;;;;32.27;57.63;99863.13;117206;1185;21864;-58
2022/08/18 07:03:38;;;;;;;11.50;10.30;;;;;;;32.35;57.25;99862.03;117448;1182;22868;-59
2022/08/18 07:06:10;;;;;;;10.90;9.80;;;;;;;32.41;57.35;99860.54;117389;1185;22996;-59
2022/08/18 07:08:42;;;;;;;12.70;10.50;;;;;;;32.50;56.88;99860.16;117339;1186;22164;-59
2022/08/18 07:11:24;;;;;;;14.20;11.00;;;;;;;32.82;57.32;99860.39;117396;1186;21864;-59
2022/08/18 07:14:20;;;;;;;13.40;10.40;;;;;;;33.04;57.70;99862.10;117358;1182;22626;-59
2022/08/18 07:16:47;;;;;;;11.30;10.20;;;;;;;33.32;57.10;99862.96;117428;1184;22924;-59
2022/08/18 07:19:27;;;;;;;10.40;9.30;;;;;;;33.44;56.06;99858.73;117358;1183;21878;-65
2022/08/18 07:22:04;;;;;;;10.40;9.50;;;;;;;33.58;56.36;99859.84;117457;1185;21874;-65
2022/08/18 07:24:33;;;;;;;10.90;9.80;;;;;;;33.77;55.94;99859.01;117298;1182;23585;-66
2022/08/18 07:27:01;;;;;;;12.10;9.20;;;;;;;34.01;55.36;99856.56;117328;1180;24190;-65
2022/08/18 07:29:31;;;;;;;9.50;8.50;;;;;;;34.25;55.26;99859.45;117333;1183;22616;-60
2022/08/18 07:32:12;;;;;;;9.80;8.80;;;;;;;34.33;54.22;99860.17;117342;1181;22950;-66
2022/08/18 07:34:53;;;;;;;8.60;7.70;;;;;;;34.41;54.37;99863.00;117378;1183;22924;-65
2022/08/18 07:37:49;;;;;;;9.20;8.00;;;;;;;34.64;54.62;99864.08;117212;1186;22163;-59
2022/08/18 07:40:30;;;;;;;8.70;7.60;;;;;;;34.94;54.63;99862.41;119107;1186;21838;-60
2022/08/18 07:43:46;;;;;;;8.10;7.30;;;;;;;35.26;54.26;99861.04;118534;1183;22927;-65
2022/08/18 07:46:22;;;;;;;8.20;7.40;;;;;;;35.63;53.41;99860.96;117076;1188;22947;-66
2022/08/18 07:48:49;;;;;;;8.20;7.40;;;;;;;35.70;53.18;99860.73;117113;1182;22724;-65
2022/08/18 07:51:22;;;;;;;8.10;7.30;;;;;;;35.77;52.76;99856.96;117172;1182;21866;-59
2022/08/18 07:54:37;;;;;;;8.00;7.30;;;;;;;36.00;52.94;99855.73;117141;1186;23572;-59
2022/08/18 07:57:59;;;;;;;7.90;7.10;;;;;;;36.43;52.51;99848.20;117075;1187;23463;-59
2022/08/18 08:00:50;;;;;;;8.70;7.00;;;;;;;36.78;52.50;99847.21;117250;1186;22626;-59
2022/08/18 08:03:47;;;;;;;7.70;6.80;;;;;;;37.21;52.31;99846.40;117230;1183;23451;-59
2022/08/18 08:06:41;;;;;;;10.40;6.90;;;;;;;37.50;51.57;99843.73;117250;1182;22837;-59
2022/08/18 08:09:54;;;;;;;8.60;6.40;;;;;;;37.72;51.00;99843.13;117132;1189;21853;-60
2022/08/18 08:12:31;;;;;;;8.60;7.00;;;;;;;37.74;50.64;99843.76;117203;1183;22626;-59
2022/08/18 08:15:16;;;;;;;8.00;6.80;;;;;;;37.66;50.28;99846.38;117227;1186;22930;-67
2022/08/18 08:18:35;;;;;;;8.10;7.10;;;;;;;37.55;49.84;99842.23;117201;1185;21886;-66
2022/08/18 08:21:09;;;;;;;9.90;6.50;;;;;;;37.62;50.11;99840.33;117216;1186;21862;-65
2022/08/18 08:23:59;;;;;;;9.60;7.20;;;;;;;37.54;49.01;99841.55;117292;1183;23483;-60
2022/08/18 08:26:45;;;;;;;9.40;7.80;;;;;;;37.14;48.16;99841.07;117189;1186;22991;-66
2022/08/18 08:29:39;;;;;;;8.40;7.50;;;;;;;36.67;48.49;99848.86;117315;1186;22087;-65
2022/08/18 08:32:14;;;;;;;8.50;7.70;;;;;;;36.27;48.56;99855.56;117266;1182;23526;-62
2022/08/18 08:34:56;;;;;;;8.20;7.20;;;;;;;35.91;48.59;99853.08;117170;1186;21873;-60
2022/08/18 08:37:29;;;;;;;8.50;6.90;;;;;;;35.62;49.14;99848.36;117296;1186;21864;-60
2022/08/18 08:40:36;;;;;;;9.20;6.70;;;;;;;35.32;48.91;99844.09;117270;1186;21854;-61
2022/08/18 08:43:14;;;;;;;7.00;6.40;;;;;;;35.09;49.76;99841.66;117007;1189;21855;-65
2022/08/18 08:45:59;;;;;;;8.60;6.90;;;;;;;34.94;49.52;99843.86;117273;1189;21857;-61
2022/08/18 08:48:28;;;;;;;8.70;6.80;;;;;;;34.75;49.84;99847.10;117272;1183;21864;-65
2022/08/18 08:51:00;;;;;;;7.90;7.10;;;;;;;34.62;49.98;99845.53;117210;1182;22952;-65
2022/08/18 08:53:31;;;;;;;7.40;6.70;;;;;;;34.57;50.08;99839.27;118009;1186;22905;-66
2022/08/18 08:56:02;;;;;;;8.10;7.30;;;;;;;34.57;50.49;99840.73;117169;1185;22650;-65
2022/08/18 08:58:35;;;;;;;8.40;7.30;;;;;;;34.52;51.06;99842.98;117156;1188;21943;-61
2022/08/18 09:01:02;;;;;;;8.00;7.20;;;;;;;34.42;51.70;99845.30;117159;1181;22615;-61
2022/08/18 09:03:44;;;;;;;8.60;7.50;;;;;;;34.14;52.24;99846.06;117226;1182;21865;-67
2022/08/18 09:06:33;;;;;;;8.10;7.30;;;;;;;33.86;53.00;99844.54;117182;1181;22129;-61
2022/08/18 09:09:16;;;;;;;10.40;9.20;;;;;;;33.75;52.02;99840.52;117117;1185;22154;-61
2022/08/18 09:12:10;;;;;;;10.40;8.90;;;;;;;33.53;51.38;99841.42;117764;1188;23602;-65
2022/08/18 09:15:04;;;;;;;9.40;8.20;;;;;;;33.32;50.66;99840.86;117339;1183;23645;-61
2022/08/18 09:17:40;;;;;;;12.30;11.00;;;;;;;33.26;50.86;99838.77;117263;1182;23554;-60
2022/08/18 09:20:39;;;;;;;10.60;9.00;;;;;;;33.25;50.23;99835.89;117318;1185;21852;-60
2022/08/18 09:23:27;;;;;;;8.50;7.70;;;;;;;33.44;51.10;99841.48;118020;1186;23563;-67
2022/08/18 09:25:57;;;;;;;10.30;7.90;;;;;;;33.69;50.61;99840.45;117189;1183;21867;-61
2022/08/18 09:28:27;;;;;;;10.40;7.90;;;;;;;33.81;50.23;99835.43;117150;1186;23551;-66
2022/08/18 09:31:06;;;;;;;9.00;8.10;;;;;;;33.78;49.51;99832.36;117330;1183;22970;-68
2022/08/18 09:33:47;;;;;;;9.30;7.90;;;;;;;33.64;50.35;99833.18;117343;1186;21957;-66
2022/08/18 09:36:28;;;;;;;10.80;9.00;;;;;;;33.53;50.28;99830.02;117295;1186;23540;-61
2022/08/18 09:41:54;;;;;;;10.70;9.40;;;;;;;33.34;50.01;99824.81;117158;1186;21950;-61
2022/08/18 09:44:47;;;;;;;11.00;9.20;;;;;;;33.37;50.01;99824.28;117398;1184;21855;-61
2022/08/18 09:47:20;;;;;;;9.50;8.50;;;;;;;33.49;48.90;99816.50;117103;1186;23554;-68
2022/08/18 09:50:16;;;;;;;9.80;8.70;;;;;;;33.77;49.44;99814.63;117327;1186;22892;-61
2022/08/18 09:52:55;;;;;;;8.70;7.80;;;;;;;34.35;49.74;99807.68;116873;1186;21901;-62
2022/08/18 09:55:23;;;;;;;10.00;7.90;;;;;;;34.69;49.82;99805.75;117234;1182;21859;-62
2022/08/18 09:58:13;;;;;;;9.10;6.70;;;;;;;35.00;48.35;99811.36;117354;1185;22640;-61
2022/08/18 10:00:42;;;;;;;7.20;6.50;;;;;;;35.15;47.68;99815.94;117240;1186;22645;-61
2022/08/18 10:03:12;;;;;;;7.70;6.70;;;;;;;35.21;48.11;99819.12;116962;1182;23577;-68
2022/08/18 10:05:40;;;;;;;7.50;6.60;;;;;;;35.29;48.17;99819.45;117331;1180;22945;-61
2022/08/18 10:08:07;;;;;;;7.10;6.50;;;;;;;35.45;47.84;99822.73;117312;1183;23477;-62
2022/08/18 10:10:54;;;;;;;14.20;6.80;;;;;;;35.42;46.93;99822.18;117211;1186;22005;-68
2022/08/18 10:13:49;;;;;;;7.70;7.00;;;;;;;35.16;46.70;99822.84;117274;1183;23497;-62
2022/08/18 10:16:22;;;;;;;9.60;7.40;;;;;;;34.90;47.75;99823.17;117271;1186;21872;-68
2022/08/18 10:18:58;;;;;;;7.70;6.80;;;;;;;34.71;47.81;99821.67;117190;1186;21866;-67
2022/08/18 10:21:29;;;;;;;6.70;6.00;;;;;;;34.52;47.88;99824.33;117217;1183;21848;-62
2022/08/18 10:24:02;;;;;;;7.50;6.70;;;;;;;34.20;47.27;99824.23;117243;1186;21879;-67
2022/08/18 10:26:49;;;;;;;7.30;6.60;;;;;;;33.93;47.93;99825.23;117323;1182;21859;-68
2022/08/18 10:29:30;;;;;;;11.20;6.60;;;;;;;33.82;48.19;99829.90;117229;1186;21956;-61
2022/08/18 10:31:58;;;;;;;7.60;6.50;;;;;;;33.74;48.26;99822.05;117213;1183;22816;-67
2022/08/18 10:34:42;;;;;;;7.40;6.60;;;;;;;33.72;48.45;99819.05;117324;1185;21859;-61
2022/08/18 10:37:43;;;;;;;7.50;6.70;;;;;;;33.66;48.30;99821.89;117205;1186;21867;-61
2022/08/18 10:40:13;;;;;;;7.50;6.70;;;;;;;33.52;47.93;99823.34;117347;1185;21884;-68
2022/08/18 10:42:44;;;;;;;11.80;7.50;;;;;;;33.32;47.22;99823.02;117341;1183;21873;-67
2022/08/18 10:45:29;;;;;;;6.90;6.20;;;;;;;33.06;47.56;99822.95;117261;1186;21861;-67
2022/08/18 10:48:17;;;;;;;7.70;6.00;;;;;;;32.83;48.00;99821.31;117067;1186;22970;-68
2022/08/18 10:50:57;;;;;;;7.00;6.30;;;;;;;32.59;48.84;99828.33;117170;1186;21884;-68
2022/08/18 10:53:34;;;;;;;12.60;6.30;;;;;;;32.28;49.31;99842.98;117204;1185;21871;-68
2022/08/18 10:56:32;;;;;;;13.40;6.30;;;;;;;31.70;50.22;99861.23;117204;1186;21858;-65
2022/08/18 10:59:18;;;;;;;31.30;11.20;;;;;;;31.00;52.31;99875.36;117230;1188;21961;-63
2022/08/18 11:02:26;;;;;;;14.40;8.70;;;;;;;30.23;52.65;99868.00;117181;1181;22931;-65
2022/08/18 11:04:54;;;;;;;11.00;9.00;;;;;;;29.57;52.73;99858.20;119326;1186;21782;-65
2022/08/18 11:07:28;;;;;;;10.70;8.00;;;;;;;28.93;52.98;99852.77;119344;1185;21764;-64
2022/08/18 11:10:00;;;;;;;9.80;7.60;;;;;;;28.29;54.08;99847.69;118884;1187;21898;-66
2022/08/18 11:13:11;;;;;;;10.40;7.00;;;;;;;27.76;55.48;99846.50;117259;1186;21855;-65
2022/08/18 11:15:51;;;;;;;7.90;6.80;;;;;;;27.51;55.33;99841.41;117136;1188;22680;-67
2022/08/18 11:18:27;;;;;;;9.60;7.60;;;;;;;27.27;55.84;99836.69;117309;1186;21868;-62
2022/08/18 11:21:34;;;;;;;11.40;8.60;;;;;;;27.16;56.63;99832.46;117180;1189;21860;-67
2022/08/18 11:24:12;;;;;;;10.70;9.60;;;;;;;27.23;57.21;99833.84;117276;1186;22915;-62
2022/08/18 11:26:54;;;;;;;11.30;10.00;;;;;;;27.33;57.41;99832.40;117301;1185;21857;-63
2022/08/18 11:29:23;;;;;;;11.60;10.10;;;;;;;27.45;57.72;99837.30;117269;1183;21872;-62
2022/08/18 11:31:53;;;;;;;10.30;9.30;;;;;;;27.64;58.20;99844.38;117139;1184;22924;-67
2022/08/18 11:34:37;;;;;;;9.00;7.20;;;;;;;27.85;57.90;99844.61;117202;1186;21861;-67
2022/08/18 11:37:35;;;;;;;8.00;6.50;;;;;;;27.99;57.62;99844.01;117077;1186;21963;-63
2022/08/18 11:40:23;;;;;;;7.40;6.20;;;;;;;28.07;57.38;99843.64;117576;1185;23442;-62
2022/08/18 11:43:12;;;;;;;7.60;6.80;;;;;;;28.12;57.54;99844.28;117258;1182;22317;-62
2022/08/18 11:45:46;;;;;;;8.40;6.80;;;;;;;28.17;57.50;99839.63;117309;1183;22667;-62
2022/08/18 11:48:13;;;;;;;7.60;6.80;;;;;;;28.23;57.67;99841.19;117300;1186;21864;-61
2022/08/18 11:50:48;;;;;;;11.60;7.20;;;;;;;28.28;57.74;99832.59;117362;1184;23579;-61
2022/08/18 11:53:41;;;;;;;10.00;7.70;;;;;;;28.35;57.85;99828.53;117320;1183;22924;-61
2022/08/18 11:56:12;;;;;;;8.50;7.40;;;;;;;28.45;58.02;99827.08;117363;1182;21902;-67
2022/08/18 11:58:47;;;;;;;8.10;7.30;;;;;;;28.54;57.76;99822.73;117306;1183;22092;-67
2022/08/18 12:01:53;;;;;;;8.40;7.60;;;;;;;28.59;57.49;99820.66;117344;1185;22934;-61
2022/08/18 12:04:24;;;;;;;8.60;7.60;;;;;;;28.67;57.69;99820.63;117369;1183;22725;-66
2022/08/18 12:06:55;;;;;;;10.00;8.60;;;;;;;28.72;57.86;99818.80;117329;1185;22941;-66
2022/08/18 12:09:31;;;;;;;10.00;8.70;;;;;;;28.76;57.75;99818.85;117305;1182;24155;-65
2022/08/18 12:12:26;;;;;;;10.00;9.10;;;;;;;28.77;57.62;99822.52;117311;1186;22938;-66
2022/08/18 12:15:13;;;;;;;10.20;9.20;;;;;;;28.75;57.33;99829.25;117112;1186;22955;-66
2022/08/18 12:17:50;;;;;;;10.90;9.90;;;;;;;28.71;57.42;99839.34;117400;1184;21874;-60
2022/08/18 12:20:19;;;;;;;10.90;9.80;;;;;;;28.69;57.66;99849.08;117298;1185;21858;-60
2022/08/18 12:22:48;;;;;;;11.60;10.30;;;;;;;28.65;57.69;99851.90;117431;1185;23557;-61